Time;durP1;ratioP1;P1;durP2;ratioP2;P2;SDS_P1;SDS_P2;PMS_P1;PMS_P2;Temp;Humidity;BMP_temperature;BMP_pressure;BME280_temperature;BME280_humidity;BME280_pressure;Samples;Min_cycle;Max_cycle;Signal;HPM_P1;HPM_P2
2021/03/08 07:48:58;;;;;;;53.57;32.77;;;2.90;99.90;;;;;;6376809;22;20503;-93
2021/03/08 07:51:31;;;;;;;55.40;32.10;;;2.90;1.00;;;;;;6375157;22;20516;-92
2021/03/08 07:54:00;;;;;;;45.63;30.27;;;3.00;99.90;;;;;;6374909;22;20414;-92
2021/03/08 07:56:28;;;;;;;49.40;32.40;;;2.90;99.90;;;;;;6375129;22;20402;-92
2021/03/08 07:58:58;;;;;;;48.30;30.47;;;2.90;1.00;;;;;;6374482;22;20478;-92
2021/03/08 08:01:28;;;;;;;52.27;30.67;;;3.00;99.90;;;;;;6375273;22;20449;-92
2021/03/08 08:03:59;;;;;;;54.23;31.27;;;3.00;1.00;;;;;;6373091;22;20483;-92
2021/03/08 08:06:31;;;;;;;56.37;33.07;;;3.10;99.90;;;;;;6376962;22;20399;-92
2021/03/08 08:08:59;;;;;;;60.93;32.43;;;3.10;1.00;;;;;;6375915;22;20400;-91
2021/03/08 08:11:28;;;;;;;58.63;33.40;;;3.10;99.90;;;;;;6374381;22;20396;-91
2021/03/08 08:13:59;;;;;;;55.53;32.93;;;3.00;99.90;;;;;;6374751;22;20445;-91
2021/03/08 08:16:29;;;;;;;55.47;33.57;;;2.90;12.10;;;;;;6375829;22;20487;-91
2021/03/08 08:19:03;;;;;;;53.63;32.37;;;2.90;99.90;;;;;;6373665;22;20481;-91
2021/03/08 08:21:34;;;;;;;54.03;33.63;;;3.00;1.00;;;;;;6375549;22;20426;-91
2021/03/08 08:24:03;;;;;;;62.13;34.80;;;3.00;1.00;;;;;;6374930;22;20733;-92
2021/03/08 08:26:31;;;;;;;54.90;33.00;;;2.90;99.90;;;;;;6375937;22;20446;-91
2021/03/08 08:28:58;;;;;;;55.20;33.47;;;3.00;99.90;;;;;;6374871;22;20425;-91
2021/03/08 08:31:28;;;;;;;53.80;32.53;;;3.00;99.90;;;;;;6375336;22;20494;-91
2021/03/08 08:33:59;;;;;;;55.90;35.23;;;3.00;99.90;;;;;;6375344;22;20775;-91
2021/03/08 08:36:27;;;;;;;58.73;35.10;;;3.00;99.90;;;;;;6375206;22;20446;-91
2021/03/08 08:39:16;;;;;;;57.73;35.20;;;3.00;99.90;;;;;;6375435;22;20817;-91
2021/03/08 08:41:43;;;;;;;55.90;34.60;;;3.10;71.40;;;;;;6375507;22;20423;-91
2021/03/08 08:44:38;;;;;;;57.30;33.87;;;3.10;1.00;;;;;;6375075;22;20422;-91
2021/03/08 08:47:19;;;;;;;54.93;34.10;;;3.30;1.00;;;;;;6383439;22;20445;-91
2021/03/08 08:49:55;;;;;;;54.00;30.40;;;3.30;99.90;;;;;;6407307;22;20417;-91
2021/03/08 08:52:54;;;;;;;57.73;35.17;;;3.20;1.00;;;;;;6407656;22;20524;-91
2021/03/08 08:55:23;;;;;;;52.80;33.60;;;3.10;1.00;;;;;;6406895;22;20479;-91
2021/03/08 08:58:24;;;;;;;59.60;35.30;;;3.10;99.90;;;;;;6407510;22;20459;-91
2021/03/08 09:01:21;;;;;;;66.10;39.33;;;3.10;91.50;;;;;;6378451;22;20466;-91
2021/03/08 09:04:07;;;;;;;65.40;36.40;;;3.30;99.90;;;;;;6384770;22;20421;-91
2021/03/08 09:06:55;;;;;;;65.03;37.27;;;3.30;1.00;;;;;;6407244;22;20417;-91
2021/03/08 09:09:24;;;;;;;68.60;38.87;;;3.40;1.00;;;;;;6405944;22;20453;-91
2021/03/08 09:11:54;;;;;;;64.57;37.13;;;3.50;99.90;;;;;;6407008;22;20418;-92
2021/03/08 09:14:54;;;;;;;69.60;40.00;;;3.60;99.90;;;;;;6407086;22;20421;-91
2021/03/08 09:17:23;;;;;;;71.80;40.90;;;3.60;4.70;;;;;;6405804;22;20456;-91
2021/03/08 09:20:11;;;;;;;73.73;39.77;;;3.80;86.80;;;;;;6406176;22;20425;-91
2021/03/08 09:23:15;;;;;;;65.60;39.37;;;3.60;1.00;;;;;;6406294;22;20421;-91
2021/03/08 09:29:06;;;;;;;84.67;42.57;;;3.70;1.00;;;;;;6403653;22;20453;-91
2021/03/08 09:31:34;;;;;;;77.13;38.83;;;3.80;99.90;;;;;;6406300;22;20717;-91
2021/03/08 09:34:05;;;;;;;74.83;39.67;;;3.80;45.30;;;;;;6405907;22;20397;-92
2021/03/08 09:36:40;;;;;;;74.30;39.07;;;3.60;99.90;;;;;;6406096;22;20738;-91
2021/03/08 09:39:10;;;;;;;78.20;42.80;;;3.60;1.00;;;;;;6406171;22;20445;-91
2021/03/08 09:42:01;;;;;;;76.97;39.60;;;3.80;1.00;;;;;;6405657;22;20405;-91
2021/03/08 09:44:42;;;;;;;78.83;39.53;;;3.90;1.00;;;;;;6404379;22;20734;-92
2021/03/08 09:47:10;;;;;;;79.00;39.30;;;4.00;1.00;;;;;;6407173;22;20422;-92
2021/03/08 09:49:50;;;;;;;68.07;38.20;;;4.00;99.90;;;;;;6406759;22;20455;-92
2021/03/08 09:52:39;;;;;;;68.57;36.60;;;4.10;99.90;;;;;;6404745;22;20453;-92
2021/03/08 09:55:08;;;;;;;68.03;38.30;;;4.20;99.90;;;;;;6406398;22;20522;-92
2021/03/08 09:57:37;;;;;;;62.80;37.47;;;4.10;1.00;;;;;;6405917;22;20445;-91
2021/03/08 10:00:10;;;;;;;65.77;38.20;;;4.10;72.70;;;;;;6405925;22;20515;-92
2021/03/08 10:02:38;;;;;;;69.17;38.57;;;4.00;1.00;;;;;;6405125;22;20437;-92
2021/03/08 10:05:08;;;;;;;72.17;40.63;;;3.80;99.90;;;;;;6405423;22;20772;-91
2021/03/08 10:07:35;;;;;;;79.33;38.43;;;3.80;1.00;;;;;;6404820;22;20416;-91
2021/03/08 10:10:12;;;;;;;64.30;37.53;;;3.80;1.00;;;;;;6404835;22;20399;-91
2021/03/08 10:12:42;;;;;;;67.53;37.77;;;3.90;1.00;;;;;;6405401;22;20460;-91
2021/03/08 10:15:12;;;;;;;68.87;38.83;;;4.10;10.40;;;;;;6405146;22;20478;-91
2021/03/08 10:17:53;;;;;;;57.23;33.87;;;4.10;1.00;;;;;;6404590;22;20794;-91
2021/03/08 10:20:20;;;;;;;58.97;33.67;;;4.20;1.00;;;;;;6404544;22;20737;-91
2021/03/08 10:22:47;;;;;;;59.80;35.50;;;4.20;99.90;;;;;;6404781;22;20418;-91
2021/03/08 10:25:22;;;;;;;60.67;35.77;;;4.20;99.90;;;;;;6405652;22;20722;-91
2021/03/08 10:27:53;;;;;;;59.50;34.37;;;4.20;1.00;;;;;;6404590;22;20562;-91
2021/03/08 10:30:22;;;;;;;58.60;35.73;;;4.30;99.90;;;;;;6404722;22;20437;-91
2021/03/08 10:32:52;;;;;;;57.17;34.00;;;4.30;99.90;;;;;;6405371;22;20507;-91
2021/03/08 10:35:19;;;;;;;57.47;35.97;;;4.50;99.90;;;;;;6405645;22;20421;-91
2021/03/08 10:37:50;;;;;;;58.43;33.90;;;4.60;99.90;;;;;;6403528;22;20452;-91
2021/03/08 10:40:18;;;;;;;49.63;30.87;;;4.70;17.10;;;;;;6404654;22;20780;-92
2021/03/08 10:42:46;;;;;;;52.03;31.90;;;4.60;1.00;;;;;;6404964;22;20490;-92
2021/03/08 10:45:14;;;;;;;55.30;32.40;;;4.80;99.90;;;;;;6405072;22;20401;-92
2021/03/08 10:47:42;;;;;;;49.60;32.50;;;4.80;99.90;;;;;;6404615;22;20402;-92
2021/03/08 10:50:10;;;;;;;49.87;32.07;;;4.70;99.90;;;;;;6404854;22;20486;-92
2021/03/08 10:52:36;;;;;;;47.70;31.30;;;4.60;99.90;;;;;;6404779;22;20497;-92
2021/03/08 10:55:04;;;;;;;54.73;32.13;;;4.60;1.00;;;;;;6405650;22;20428;-92
2021/03/08 10:57:31;;;;;;;41.90;29.90;;;4.80;14.20;;;;;;6404339;22;20426;-92
2021/03/08 10:59:58;;;;;;;44.30;29.10;;;4.80;1.00;;;;;;6404763;22;20445;-92
2021/03/08 11:02:25;;;;;;;49.83;30.13;;;4.70;99.90;;;;;;6401829;22;20421;-92
2021/03/08 11:05:12;;;;;;;45.93;30.00;;;4.80;99.90;;;;;;6404131;22;20421;-92
2021/03/08 11:07:39;;;;;;;49.17;30.07;;;5.00;82.10;;;;;;6404743;22;20421;-92
2021/03/08 11:10:07;;;;;;;53.70;31.70;;;4.90;1.00;;;;;;6404954;22;20422;-92
2021/03/08 11:12:34;;;;;;;55.90;34.37;;;5.20;1.00;;;;;;6403899;22;20461;-92
2021/03/08 11:15:01;;;;;;;53.20;31.57;;;5.10;99.90;;;;;;6404426;22;20427;-92
2021/03/08 11:17:33;;;;;;;56.20;34.30;;;4.90;99.90;;;;;;6403646;22;20482;-92
2021/03/08 11:20:22;;;;;;;57.73;34.57;;;5.00;99.90;;;;;;6404509;22;20421;-92
2021/03/08 11:22:56;;;;;;;57.03;33.43;;;5.20;1.00;;;;;;6404939;22;20827;-92
2021/03/08 11:25:35;;;;;;;51.77;30.33;;;5.10;1.00;;;;;;6405299;22;20424;-92
2021/03/08 11:28:07;;;;;;;45.23;29.87;;;5.20;1.00;;;;;;6404689;22;20402;-92
2021/03/08 11:30:37;;;;;;;44.27;28.60;;;5.40;1.00;;;;;;6404092;22;20911;-92
2021/03/08 11:33:07;;;;;;;41.60;27.63;;;5.70;99.90;;;;;;6403876;22;20882;-92
2021/03/08 11:35:36;;;;;;;35.70;23.53;;;5.90;1.00;;;;;;6404751;22;20407;-92
2021/03/08 11:38:05;;;;;;;32.47;24.20;;;6.20;99.90;;;;;;6404721;22;20452;-92
2021/03/08 11:40:37;;;;;;;40.43;26.10;;;6.00;99.90;;;;;;6404311;22;20402;-92
2021/03/08 11:43:04;;;;;;;36.13;24.17;;;6.20;99.90;;;;;;6403182;22;20711;-92
2021/03/08 11:45:38;;;;;;;37.07;25.00;;;6.50;99.90;;;;;;6404677;22;20413;-92
2021/03/08 12:43:02;;;;;;;44.20;27.60;;;6.20;99.90;;;;;;6401679;22;20802;-92
2021/03/08 12:45:36;;;;;;;48.03;28.23;;;6.40;99.90;;;;;;6406878;22;20405;-91
2021/03/08 12:48:04;;;;;;;44.50;28.10;;;6.60;99.90;;;;;;6406884;22;20417;-91
2021/03/08 12:50:32;;;;;;;49.43;29.53;;;6.70;99.90;;;;;;6406158;22;20712;-92
2021/03/08 12:53:01;;;;;;;49.33;28.20;;;6.50;97.70;;;;;;6377765;22;20474;-92
2021/03/08 12:55:31;;;;;;;45.77;30.50;;;6.20;69.90;;;;;;6377774;22;20417;-92
2021/03/08 12:57:59;;;;;;;47.57;30.47;;;5.90;99.90;;;;;;6405628;22;20506;-92
2021/03/08 13:00:35;;;;;;;45.43;28.70;;;5.90;99.90;;;;;;6406490;22;20416;-92
2021/03/08 13:03:04;;;;;;;56.30;31.20;;;6.10;99.90;;;;;;6404101;22;20432;-92
2021/03/08 13:05:33;;;;;;;50.80;29.43;;;6.10;99.90;;;;;;6405169;22;20421;-92
2021/03/08 13:08:02;;;;;;;44.87;28.17;;;6.20;99.90;;;;;;6405959;22;20418;-92
2021/03/08 13:10:31;;;;;;;50.53;29.90;;;6.20;99.90;;;;;;6378638;22;20413;-92
2021/03/08 13:13:01;;;;;;;38.73;26.50;;;6.20;99.90;;;;;;6407391;22;20456;-92
2021/03/08 13:15:28;;;;;;;52.80;29.00;;;6.00;71.40;;;;;;6407284;22;20428;-91
2021/03/08 13:17:59;;;;;;;46.87;29.90;;;6.10;99.90;;;;;;6406157;22;20505;-92
2021/03/08 13:20:26;;;;;;;44.60;26.30;;;6.00;99.90;;;;;;6406910;22;20718;-92
2021/03/08 13:22:54;;;;;;;46.90;29.40;;;6.00;99.90;;;;;;6378689;22;20420;-92
2021/03/08 13:25:21;;;;;;;51.37;30.47;;;6.00;99.90;;;;;;6405460;22;20578;-92
2021/03/08 13:27:54;;;;;;;45.50;28.43;;;5.90;99.90;;;;;;6407227;22;20493;-92
2021/03/08 13:55:16;;;;;;;52.30;29.87;;;5.60;99.90;;;;;;6392275;22;20433;-91
2021/03/08 14:00:29;;;;;;;54.23;31.20;;;5.70;99.90;;;;;;6402339;22;20531;-91
2021/03/08 14:03:02;;;;;;;52.80;31.30;;;5.50;99.90;;;;;;6403570;22;20818;-92
2021/03/08 14:05:32;;;;;;;51.00;31.07;;;5.30;99.90;;;;;;6404836;22;20417;-91
2021/03/08 14:10:44;;;;;;;67.40;35.03;;;5.30;1.00;;;;;;6405614;22;20504;-92
2021/03/08 14:16:02;;;;;;;60.70;35.03;;;5.50;1.00;;;;;;6405249;22;20488;-92
2021/03/08 14:19:13;;;;;;;62.47;35.47;;;5.60;1.00;;;;;;6405421;22;20494;-92
2021/03/08 14:21:44;;;;;;;65.17;33.07;;;5.70;99.90;;;;;;6404758;22;20765;-92
2021/03/08 14:41:52;;;;;;;52.97;32.80;;;6.20;24.30;;;;;;6402095;22;20401;-92
2021/03/08 15:00:03;;;;;;;56.53;34.40;;;6.90;1.00;;;;;;6403676;22;20452;-92
2021/03/08 15:29:17;;;;;;;67.80;39.57;;;6.30;1.00;;;;;;6404060;22;20708;-92
2021/03/08 17:47:21;;;;;;;62.60;37.57;;;5.40;1.00;;;;;;6437704;22;20512;-91
2021/03/08 17:49:53;;;;;;;73.97;41.70;;;5.20;1.00;;;;;;6438784;22;20459;-91
2021/03/08 17:52:22;;;;;;;65.00;37.13;;;5.00;1.00;;;;;;6437788;22;20892;-91
2021/03/08 17:54:51;;;;;;;58.40;36.50;;;4.90;1.00;;;;;;6437090;22;20412;-91
2021/03/08 17:57:23;;;;;;;68.80;37.33;;;4.70;1.00;;;;;;6410081;22;20910;-91
2021/03/08 17:59:53;;;;;;;63.33;37.87;;;4.60;17.20;;;;;;6438171;22;20440;-91
2021/03/08 18:02:50;;;;;;;65.40;38.87;;;4.50;65.90;;;;;;6441079;22;20405;-93
2021/03/08 18:05:26;;;;;;;63.83;36.47;;;4.50;99.90;;;;;;6437398;22;20412;-91
2021/03/08 18:07:55;;;;;;;64.47;36.17;;;4.40;99.90;;;;;;6437949;22;20452;-91
2021/03/08 18:10:42;;;;;;;69.80;38.93;;;4.30;99.90;;;;;;6438218;22;20421;-91
2021/03/08 18:13:24;;;;;;;105.47;54.33;;;4.40;99.90;;;;;;6437219;22;20847;-92
2021/03/08 18:19:15;;;;;;;72.67;41.10;;;4.30;99.90;;;;;;6436089;22;20448;-92
2021/03/08 18:22:19;;;;;;;65.50;36.67;;;4.20;99.90;;;;;;6438227;22;20416;-92
2021/03/08 18:25:04;;;;;;;104.87;53.47;;;4.10;99.90;;;;;;6435413;22;20476;-92
2021/03/08 18:34:15;;;;;;;67.73;36.50;;;4.20;1.00;;;;;;6436130;22;20409;-92
2021/03/08 18:43:01;;;;;;;75.67;41.53;;;3.90;99.90;;;;;;6435426;22;20416;-92
2021/03/08 18:46:28;;;;;;;71.97;39.00;;;3.90;1.00;;;;;;6433521;22;20412;-92
2021/03/08 18:55:55;;;;;;;67.57;38.67;;;3.60;1.00;;;;;;6437567;22;20477;-92
2021/03/08 18:58:46;;;;;;;68.43;36.47;;;3.60;1.00;;;;;;6437783;22;20444;-92
2021/03/08 19:08:07;;;;;;;63.57;37.13;;;3.60;1.00;;;;;;6436359;22;20480;-92
2021/03/08 19:13:57;;;;;;;64.43;33.60;;;3.60;1.00;;;;;;6433749;22;20410;-92
2021/03/08 19:22:28;;;;;;;64.73;34.17;;;3.50;99.90;;;;;;6436874;22;20411;-92
2021/03/08 19:25:59;;;;;;;61.40;35.40;;;3.50;99.90;;;;;;6436476;22;20409;-93
2021/03/08 19:38:06;;;;;;;66.23;33.90;;;3.50;99.90;;;;;;6434351;22;20436;-93
2021/03/08 19:41:24;;;;;;;63.07;33.37;;;3.40;99.90;;;;;;6407127;22;20721;-93
2021/03/08 19:44:29;;;;;;;60.40;32.77;;;3.50;99.90;;;;;;6437546;22;20410;-92
2021/03/08 19:57:16;;;;;;;64.23;33.03;;;3.50;99.90;;;;;;6437688;22;20561;-92
2021/03/08 20:03:50;;;;;;;67.50;35.40;;;3.50;99.90;;;;;;6437575;22;20483;-92
2021/03/08 20:16:15;;;;;;;61.70;33.90;;;3.40;99.90;;;;;;6437578;22;20411;-92
2021/03/08 20:19:23;;;;;;;68.60;34.80;;;3.40;99.90;;;;;;6439744;22;20472;-93
2021/03/08 20:22:13;;;;;;;67.43;35.70;;;3.50;99.90;;;;;;6438832;22;20416;-92
2021/03/08 20:41:30;;;;;;;65.53;36.27;;;3.50;15.60;;;;;;6401323;22;20405;-92
2021/03/08 20:47:55;;;;;;;66.63;35.77;;;3.50;70.80;;;;;;6402896;22;20796;-93
2021/03/08 21:06:27;;;;;;;66.53;34.30;;;3.40;1.00;;;;;;6388054;22;20478;-93
2021/03/08 21:09:23;;;;;;;73.17;36.80;;;3.40;1.00;;;;;;6401028;22;20416;-92
2021/03/08 21:18:31;;;;;;;69.63;35.93;;;3.40;1.00;;;;;;6403815;22;20410;-93
2021/03/08 21:21:19;;;;;;;65.37;35.20;;;3.40;1.00;;;;;;6418214;22;20440;-92
2021/03/08 21:27:35;;;;;;;67.20;34.20;;;3.40;1.00;;;;;;6437752;22;20459;-93
2021/03/08 22:32:25;;;;;;;63.60;33.37;;;3.00;1.00;;;;;;6409650;22;20892;-91
2021/03/08 22:35:07;;;;;;;65.40;36.07;;;3.00;1.00;;;;;;6434176;22;20405;-90
2021/03/08 22:52:59;;;;;;;63.33;32.70;;;2.80;1.00;;;;;;6436091;22;20413;-91
2021/03/08 22:55:59;;;;;;;61.30;34.07;;;2.80;1.00;;;;;;6435383;22;20767;-92
2021/03/08 22:59:01;;;;;;;62.47;35.03;;;2.80;99.90;;;;;;6436956;22;20441;-91
2021/03/08 23:01:46;;;;;;;63.03;34.00;;;2.80;99.90;;;;;;6437013;22;20380;-91
2021/03/08 23:10:06;;;;;;;62.10;32.40;;;2.90;99.90;;;;;;6435313;22;20393;-91
2021/03/08 23:12:54;;;;;;;64.07;33.90;;;2.90;1.00;;;;;;6407696;22;20498;-91
2021/03/08 23:15:31;;;;;;;61.93;32.87;;;2.80;99.90;;;;;;6436741;22;20413;-91
2021/03/08 23:18:07;;;;;;;70.13;36.40;;;2.80;1.00;;;;;;6436879;22;20408;-91
2021/03/08 23:26:28;;;;;;;70.63;34.97;;;2.80;1.00;;;;;;6437077;22;20448;-91
2021/03/08 23:29:25;;;;;;;67.40;35.13;;;3.00;1.00;;;;;;6436812;22;20408;-91
2021/03/08 23:32:18;;;;;;;66.13;36.00;;;3.00;99.90;;;;;;6437138;22;20412;-94
2021/03/08 23:37:44;;;;;;;61.90;33.10;;;3.00;99.90;;;;;;6434587;22;20492;-92
2021/03/08 23:40:48;;;;;;;62.20;33.93;;;3.10;1.00;;;;;;6435000;22;20444;-91
2021/03/08 23:43:54;;;;;;;59.93;33.80;;;3.00;1.00;;;;;;6437471;22;20419;-91
2021/03/08 23:49:43;;;;;;;58.50;32.60;;;3.00;1.00;;;;;;6433694;22;20412;-91
2021/03/08 23:55:25;;;;;;;60.37;33.20;;;3.00;1.00;;;;;;6432273;22;20918;-91
